Time;durP1;ratioP1;P1;durP2;ratioP2;P2;SDS_P1;SDS_P2;PMS_P1;PMS_P2;Temp;Humidity;BMP_temperature;BMP_pressure;BME280_temperature;BME280_humidity;BME280_pressure;Samples;Min_cycle;Max_cycle;Signal;HPM_P1;HPM_P2
2023/08/25 00:00:35;;;;;;;6.95;6.43;;;;;;;-141.84;64.71;22064.31;5031524;28;20206;-60
2023/08/25 00:03:04;;;;;;;6.63;6.03;;;;;;;-141.84;64.86;22037.88;5040303;28;20538;-59
2023/08/25 00:05:38;;;;;;;8.23;6.65;;;;;;;-141.84;65.46;22031.78;5051120;28;20221;-60
2023/08/25 00:08:07;;;;;;;6.93;6.25;;;;;;;-141.84;65.62;22058.22;5050868;28;20206;-59
2023/08/25 00:10:35;;;;;;;7.72;6.20;;;;;;;-141.84;65.91;21972.81;5054285;28;20212;-59
2023/08/25 00:13:04;;;;;;;7.82;6.82;;;;;;;-141.84;66.14;22027.72;5054888;28;20236;-59
2023/08/25 00:15:33;;;;;;;6.95;6.25;;;;;;;-141.84;66.53;21985.00;5054895;28;20388;-60
2023/08/25 00:18:02;;;;;;;8.15;6.88;;;;;;;-141.84;66.40;22003.31;5054625;28;20208;-59
2023/08/25 00:20:31;;;;;;;7.72;6.82;;;;;;;-141.84;66.46;21999.25;5046751;28;20217;-59
2023/08/25 00:23:01;;;;;;;8.30;6.63;;;;;;;-141.84;67.08;21974.84;5034128;28;20229;-60
2023/08/25 00:25:30;;;;;;;7.72;6.85;;;;;;;-141.84;67.75;21948.41;5034803;28;20236;-60
2023/08/25 00:27:59;;;;;;;10.35;7.00;;;;;;;-141.84;67.85;21919.94;5034492;28;20286;-58
2023/08/25 00:30:27;;;;;;;7.50;6.80;;;;;;;-141.84;68.64;21891.47;5034688;28;20296;-60
2023/08/25 00:32:56;;;;;;;7.90;7.18;;;;;;;-141.84;69.20;21824.34;5034220;28;20198;-60
2023/08/25 00:35:24;;;;;;;7.68;6.93;;;;;;;-141.84;69.50;21804.03;5034668;28;20264;-60
2023/08/25 00:37:53;;;;;;;7.75;7.05;;;;;;;-141.84;69.67;21828.44;5033891;28;20288;-60
2023/08/25 00:40:23;;;;;;;8.57;7.25;;;;;;;-141.84;69.49;21834.53;5042430;28;20303;-61
2023/08/25 00:42:52;;;;;;;7.97;7.18;;;;;;;-141.84;70.00;21773.53;5054177;28;20256;-59
2023/08/25 00:45:20;;;;;;;8.55;7.75;;;;;;;-141.84;69.85;21812.16;5053916;28;20208;-60
2023/08/25 00:47:49;;;;;;;7.85;7.05;;;;;;;-141.84;70.17;21795.88;5035633;28;20212;-60
2023/08/25 00:50:18;;;;;;;9.00;8.20;;;;;;;-141.84;70.59;21763.34;5033895;28;20210;-59
2023/08/25 00:52:47;;;;;;;9.52;7.07;;;;;;;-141.84;70.59;21745.06;5033415;28;20688;-59
2023/08/25 00:55:15;;;;;;;8.75;7.97;;;;;;;-141.84;70.84;21769.47;5034103;28;20228;-58
2023/08/25 00:57:45;;;;;;;8.65;7.75;;;;;;;-141.84;70.94;21751.16;5034214;28;20202;-60
2023/08/25 01:00:14;;;;;;;8.45;7.72;;;;;;;-141.84;71.20;21724.72;5033734;28;20647;-60
2023/08/25 01:02:43;;;;;;;9.00;8.05;;;;;;;-141.84;70.15;21761.31;5040259;28;20607;-60
2023/08/25 01:05:11;;;;;;;10.05;8.75;;;;;;;-141.84;70.80;21720.66;5053800;28;20221;-60
2023/08/25 01:07:43;;;;;;;10.85;8.40;;;;;;;-141.84;70.79;21757.25;5053291;28;20205;-60
2023/08/25 01:10:12;;;;;;;9.43;8.43;;;;;;;-141.84;71.22;21720.66;5053743;28;20559;-60
2023/08/25 01:12:54;;;;;;;10.48;8.00;;;;;;;-141.84;71.64;21692.19;5053780;28;20241;-60
2023/08/25 01:15:28;;;;;;;8.55;7.85;;;;;;;-141.84;72.18;21690.16;5053845;28;20251;-58
2023/08/25 01:18:04;;;;;;;9.52;8.60;;;;;;;-141.84;72.27;21655.59;5053504;28;20247;-58
2023/08/25 01:20:33;;;;;;;10.00;9.00;;;;;;;-141.84;72.90;21639.31;5044732;28;20213;-59
2023/08/25 01:23:15;;;;;;;10.20;9.13;;;;;;;-141.84;73.07;21586.47;5033165;28;20233;-59
2023/08/25 01:25:47;;;;;;;12.23;10.30;;;;;;;-141.84;73.50;21570.19;5033452;28;20206;-58
2023/08/25 01:28:16;;;;;;;11.10;10.20;;;;;;;-141.84;73.60;21633.22;5033725;28;20186;-59
2023/08/25 01:30:44;;;;;;;10.65;9.70;;;;;;;-141.84;73.82;21584.44;5033653;28;20285;-61
2023/08/25 01:33:13;;;;;;;12.45;10.63;;;;;;;-141.84;74.19;21572.22;5033178;28;20208;-60
2023/08/25 01:35:56;;;;;;;11.48;10.38;;;;;;;-141.84;74.38;21570.19;5033357;28;20230;-60
2023/08/25 01:38:29;;;;;;;13.18;10.50;;;;;;;-141.84;73.86;21551.91;5033513;28;20193;-60
2023/08/25 01:41:08;;;;;;;10.75;9.65;;;;;;;-141.84;74.84;21497.00;5046658;28;20250;-59
2023/08/25 01:43:39;;;;;;;11.32;10.15;;;;;;;-141.84;75.52;21474.63;5052982;28;20398;-59
2023/08/25 01:46:11;;;;;;;11.90;9.85;;;;;;;-141.84;75.52;21440.06;5052972;28;20296;-59
2023/08/25 01:48:43;;;;;;;11.65;10.10;;;;;;;-141.84;75.55;21438.03;5053336;28;20250;-60
2023/08/25 01:51:12;;;;;;;10.80;9.80;;;;;;;-141.84;76.14;21403.47;5038517;28;20654;-59
2023/08/25 01:53:42;;;;;;;10.60;9.57;;;;;;;-141.84;76.31;21391.28;5032857;28;20226;-59
2023/08/25 01:56:12;;;;;;;12.45;10.27;;;;;;;-141.84;76.46;21383.13;5033184;28;20282;-60
2023/08/25 01:58:41;;;;;;;10.63;9.63;;;;;;;-141.84;76.72;21366.88;5032753;28;20209;-59
2023/08/25 02:01:09;;;;;;;9.65;8.85;;;;;;;-141.84;76.79;21344.50;5032972;28;20321;-60
2023/08/25 02:03:38;;;;;;;9.88;8.95;;;;;;;-141.84;76.81;21318.06;5047125;28;20225;-60
2023/08/25 02:06:08;;;;;;;9.75;8.95;;;;;;;-141.84;76.91;21303.84;5052248;28;20221;-60
2023/08/25 02:08:37;;;;;;;10.75;8.70;;;;;;;-141.84;75.49;21318.06;5052544;28;20265;-61
2023/08/25 02:11:06;;;;;;;9.88;8.40;;;;;;;-141.84;75.57;21342.47;5052790;28;20284;-59
2023/08/25 02:13:37;;;;;;;9.05;7.60;;;;;;;-141.84;75.58;21332.31;5052629;28;20205;-59
2023/08/25 02:16:05;;;;;;;8.50;7.65;;;;;;;-141.84;75.82;21303.84;5052547;28;20229;-60
2023/08/25 02:18:34;;;;;;;8.70;7.90;;;;;;;-141.84;75.84;21305.88;5052593;28;20201;-60
2023/08/25 02:21:02;;;;;;;11.30;8.27;;;;;;;-141.84;76.17;21307.91;5039542;28;20293;-60
2023/08/25 02:23:31;;;;;;;8.80;8.00;;;;;;;-141.84;75.45;21273.34;5032474;28;20272;-59
2023/08/25 02:25:59;;;;;;;8.27;7.55;;;;;;;-141.84;75.31;21287.56;5032100;28;20221;-59
2023/08/25 02:28:28;;;;;;;8.85;7.95;;;;;;;-141.84;75.79;21269.28;5032241;28;20208;-60
2023/08/25 02:30:58;;;;;;;8.93;6.95;;;;;;;-141.84;76.08;21269.28;5032415;28;20293;-59
2023/08/25 02:33:27;;;;;;;7.70;7.00;;;;;;;-141.84;75.35;21275.38;5031597;28;20293;-60
2023/08/25 02:35:56;;;;;;;8.30;7.50;;;;;;;-141.84;75.70;21224.56;5031809;28;20289;-60
2023/08/25 02:38:24;;;;;;;7.60;6.95;;;;;;;-141.84;76.25;21273.34;5032057;28;20232;-60
2023/08/25 02:40:53;;;;;;;8.48;7.18;;;;;;;-141.84;76.41;21259.13;5044521;28;20252;-60
2023/08/25 02:43:21;;;;;;;7.28;6.68;;;;;;;-141.84;76.60;21242.84;5051761;28;20241;-60
2023/08/25 02:45:50;;;;;;;8.13;7.43;;;;;;;-141.84;76.82;21236.75;5052028;28;20221;-60
2023/08/25 02:48:19;;;;;;;8.52;7.05;;;;;;;-141.84;75.47;21269.28;5051998;28;20213;-60
2023/08/25 02:50:48;;;;;;;7.82;7.00;;;;;;;-141.84;74.87;21295.72;5041079;28;20301;-60
2023/08/25 02:53:16;;;;;;;7.10;6.50;;;;;;;-141.84;75.22;21267.25;5032133;28;20276;-59
2023/08/25 02:55:46;;;;;;;7.68;7.07;;;;;;;-141.84;75.39;21257.09;5031923;28;20352;-59
2023/08/25 02:58:15;;;;;;;8.02;7.43;;;;;;;-141.84;74.45;21281.47;5032030;28;20244;-59
2023/08/25 03:00:43;;;;;;;7.90;6.85;;;;;;;-141.84;73.15;21289.59;5031958;28;20294;-59
2023/08/25 03:03:12;;;;;;;7.82;7.18;;;;;;;-141.84;73.85;21314.00;5042019;28;20204;-59
2023/08/25 03:05:42;;;;;;;7.78;6.90;;;;;;;-141.84;74.38;21301.81;5051154;28;20279;-60
2023/08/25 03:08:14;;;;;;;8.52;7.22;;;;;;;-141.84;74.40;21293.69;5051872;28;20233;-59
2023/08/25 03:10:44;;;;;;;8.05;7.35;;;;;;;-141.84;73.82;21291.66;5051777;28;20192;-61
2023/08/25 03:13:12;;;;;;;8.05;7.25;;;;;;;-141.84;73.22;21314.00;5051654;28;20258;-59
2023/08/25 03:15:41;;;;;;;7.95;7.05;;;;;;;-141.84;73.22;21305.88;5051530;28;20208;-60
2023/08/25 03:18:10;;;;;;;7.35;6.65;;;;;;;-141.84;73.76;21301.81;5051297;28;20590;-59
2023/08/25 03:20:38;;;;;;;7.63;6.97;;;;;;;-141.84;73.80;21324.19;5041899;28;20217;-59
2023/08/25 03:23:08;;;;;;;7.15;6.53;;;;;;;-141.84;74.14;21238.78;5031509;28;20654;-60
2023/08/25 03:25:39;;;;;;;7.50;6.78;;;;;;;-141.84;74.66;21248.94;5031893;28;20265;-60
2023/08/25 03:28:07;;;;;;;8.77;6.68;;;;;;;-141.84;74.81;21242.84;5031725;28;20212;-60
2023/08/25 03:30:37;;;;;;;8.07;7.38;;;;;;;-141.84;74.96;21244.88;5031693;28;20229;-58
2023/08/25 03:33:05;;;;;;;7.80;6.70;;;;;;;-141.84;75.16;21226.59;5031395;28;20313;-60
2023/08/25 03:35:34;;;;;;;7.57;6.88;;;;;;;-141.84;75.57;21202.19;5031083;28;20212;-59
2023/08/25 03:38:04;;;;;;;7.82;6.93;;;;;;;-141.84;75.62;21163.56;5031521;28;20298;-61
2023/08/25 03:40:34;;;;;;;8.00;7.25;;;;;;;-141.84;76.04;21200.16;5041254;28;20712;-58
2023/08/25 03:43:03;;;;;;;7.50;6.75;;;;;;;-141.84;75.90;21161.53;5051188;28;20271;-59
2023/08/25 03:45:31;;;;;;;8.07;7.05;;;;;;;-141.84;75.40;21218.44;5054225;28;20273;-61
2023/08/25 03:48:00;;;;;;;7.80;6.95;;;;;;;-141.84;75.39;21214.38;5055193;28;20288;-61
2023/08/25 03:50:30;;;;;;;8.77;6.53;;;;;;;-141.84;75.68;21161.53;5046675;28;20685;-61
2023/08/25 03:52:58;;;;;;;7.25;6.65;;;;;;;-141.84;75.77;21187.97;5035348;28;20237;-60
2023/08/25 03:55:27;;;;;;;7.43;6.63;;;;;;;-141.84;75.85;21159.50;5035157;28;20285;-59
2023/08/25 03:57:56;;;;;;;7.40;6.80;;;;;;;-141.84;76.19;21167.63;5035008;28;20257;-60
2023/08/25 04:00:25;;;;;;;7.50;6.43;;;;;;;-141.84;76.09;21153.41;5034936;28;20690;-60
2023/08/25 04:02:53;;;;;;;8.35;6.80;;;;;;;-141.84;76.30;21133.06;5043065;28;20281;-60
2023/08/25 04:05:22;;;;;;;8.20;6.60;;;;;;;-141.84;76.58;21129.00;5054163;28;20673;-60
2023/08/25 04:07:51;;;;;;;7.70;7.00;;;;;;;-141.84;76.73;21120.88;5054897;28;20307;-60
2023/08/25 04:10:20;;;;;;;7.30;6.70;;;;;;;-141.84;76.54;21106.63;5054889;28;20197;-59
2023/08/25 04:12:48;;;;;;;6.95;6.25;;;;;;;-141.84;77.01;21114.75;5054937;28;20284;-59
2023/08/25 04:15:21;;;;;;;7.47;6.78;;;;;;;-141.84;76.63;21126.97;5054597;28;20693;-60
2023/08/25 04:17:50;;;;;;;8.85;6.88;;;;;;;-141.84;76.83;21102.56;5054718;28;20284;-59
2023/08/25 04:20:19;;;;;;;7.35;6.57;;;;;;;-141.84;77.06;21122.91;5047366;28;20686;-60
2023/08/25 04:22:47;;;;;;;7.55;6.85;;;;;;;-141.84;77.30;21135.09;5034871;28;20201;-60
2023/08/25 04:25:16;;;;;;;7.80;6.75;;;;;;;-141.84;77.13;21129.00;5034308;28;20717;-59
2023/08/25 04:27:44;;;;;;;7.88;7.10;;;;;;;-141.84;77.44;21124.94;5034638;28;20218;-60
2023/08/25 04:30:13;;;;;;;7.47;6.68;;;;;;;-141.84;77.58;21114.75;5034574;28;20210;-60
2023/08/25 04:32:43;;;;;;;7.88;6.63;;;;;;;-141.84;77.29;21116.78;5034543;28;20230;-60
2023/08/25 04:35:12;;;;;;;8.60;7.22;;;;;;;-141.84;75.86;21192.03;5033942;28;20202;-59
2023/08/25 04:37:40;;;;;;;7.07;6.47;;;;;;;-141.84;75.96;21202.19;5034353;28;20772;-60
2023/08/25 04:40:09;;;;;;;8.20;6.90;;;;;;;-141.84;74.83;21192.03;5040581;28;20228;-59
2023/08/25 04:42:38;;;;;;;7.57;6.90;;;;;;;-141.84;75.15;21228.63;5035663;28;20590;-61
2023/08/25 04:45:08;;;;;;;8.57;7.63;;;;;;;-141.84;75.26;21236.75;5034218;28;20194;-60
2023/08/25 04:47:36;;;;;;;7.65;7.03;;;;;;;-141.84;74.94;21275.38;5049203;28;20615;-60
2023/08/25 04:50:08;;;;;;;7.60;6.97;;;;;;;-141.84;75.35;21232.69;5049344;28;20214;-59
2023/08/25 04:52:37;;;;;;;8.18;7.43;;;;;;;-141.84;74.89;21275.38;5034230;28;20248;-60
2023/08/25 04:55:06;;;;;;;8.45;7.07;;;;;;;-141.84;74.31;21332.31;5025543;28;20213;-59
2023/08/25 04:57:35;;;;;;;7.85;7.07;;;;;;;-141.84;73.92;21322.13;5013799;28;20230;-60
2023/08/25 05:00:05;;;;;;;9.15;8.00;;;;;;;-141.84;74.65;21314.00;5014266;28;20286;-60
2023/08/25 05:02:34;;;;;;;8.48;7.60;;;;;;;-141.84;74.75;21305.88;5024913;28;20221;-59
2023/08/25 05:05:05;;;;;;;10.50;7.72;;;;;;;-141.84;74.82;21322.13;5053047;28;20201;-60
2023/08/25 05:07:35;;;;;;;8.13;7.20;;;;;;;-141.84;74.94;21322.13;5053889;28;20202;-59
2023/08/25 05:10:03;;;;;;;10.07;8.18;;;;;;;-141.84;74.22;21344.50;5053812;28;20206;-60
2023/08/25 05:12:32;;;;;;;9.60;8.02;;;;;;;-141.84;73.71;21403.47;5053598;28;20730;-60
2023/08/25 05:15:00;;;;;;;10.20;8.25;;;;;;;-141.84;72.96;21440.06;5053741;28;20208;-59
2023/08/25 05:17:29;;;;;;;9.07;8.18;;;;;;;-141.84;72.13;21501.06;5043918;28;20198;-60
2023/08/25 05:19:57;;;;;;;8.82;7.90;;;;;;;-141.84;72.92;21507.16;5032802;28;20209;-60
2023/08/25 05:22:26;;;;;;;8.80;8.05;;;;;;;-141.84;72.36;21515.28;5033449;28;20248;-59
2023/08/25 05:24:55;;;;;;;8.73;7.60;;;;;;;-141.84;72.13;21562.06;5033548;28;20306;-60
2023/08/25 05:27:24;;;;;;;9.73;8.75;;;;;;;-141.84;71.96;21596.63;5033179;28;20672;-60
2023/08/25 05:29:53;;;;;;;9.85;8.85;;;;;;;-141.84;71.52;21586.47;5033466;28;20271;-60
2023/08/25 05:32:21;;;;;;;8.18;7.43;;;;;;;-141.84;71.13;21610.84;5033366;28;20584;-59
2023/08/25 05:34:50;;;;;;;8.82;7.45;;;;;;;-141.84;71.08;21643.38;5032957;28;20213;-59
2023/08/25 05:37:18;;;;;;;8.20;7.40;;;;;;;-141.84;70.43;21704.38;5033479;28;20202;-60
2023/08/25 05:39:47;;;;;;;9.20;7.93;;;;;;;-141.84;69.96;21734.88;5036246;28;20717;-60
2023/08/25 05:42:17;;;;;;;9.25;7.50;;;;;;;-141.84;69.84;21769.47;5052849;28;20661;-60
2023/08/25 05:44:45;;;;;;;8.98;7.72;;;;;;;-141.84;69.15;21820.28;5053319;28;20660;-59
2023/08/25 05:47:14;;;;;;;9.15;7.40;;;;;;;-141.84;68.93;21804.03;5052841;28;20232;-60
2023/08/25 05:49:42;;;;;;;9.05;8.10;;;;;;;-141.84;68.43;21899.59;5050795;28;20689;-59
2023/08/25 05:52:11;;;;;;;8.15;7.30;;;;;;;-141.84;68.51;21865.03;5032728;28;20206;-58
2023/08/25 05:54:39;;;;;;;9.38;7.38;;;;;;;-141.84;68.37;21867.06;5032873;28;20289;-59
2023/08/25 05:57:11;;;;;;;11.85;7.40;;;;;;;-141.84;68.47;21891.47;5032674;28;20194;-60
2023/08/25 05:59:42;;;;;;;8.90;7.20;;;;;;;-141.84;67.90;21915.88;5032739;28;20646;-60
2023/08/25 06:02:10;;;;;;;10.35;7.10;;;;;;;-141.84;67.67;21987.03;5034987;28;20190;-61
2023/08/25 06:04:39;;;;;;;9.38;7.60;;;;;;;-141.84;67.12;21972.81;5052343;28;20262;-58
2023/08/25 06:07:07;;;;;;;8.70;6.50;;;;;;;-141.84;68.01;21950.44;5031998;28;20772;-60
2023/08/25 06:09:36;;;;;;;7.80;7.07;;;;;;;-141.84;66.61;22023.63;5031958;28;20657;-60
2023/08/25 06:12:05;;;;;;;7.93;7.13;;;;;;;-141.84;66.79;22054.13;5032391;28;20293;-60
2023/08/25 06:14:35;;;;;;;9.90;7.00;;;;;;;-141.84;66.83;22072.44;5029869;28;20204;-60
2023/08/25 06:17:05;;;;;;;8.88;7.20;;;;;;;-141.84;66.19;22098.88;5043189;28;20205;-59
2023/08/25 06:19:35;;;;;;;8.70;7.80;;;;;;;-141.84;67.08;22041.94;5051962;28;20649;-60
2023/08/25 06:22:03;;;;;;;8.10;6.80;;;;;;;-141.84;66.58;22066.34;5013121;28;20253;-59
2023/08/25 06:24:32;;;;;;;9.90;6.47;;;;;;;-141.84;67.09;22078.53;5012783;28;20203;-60
2023/08/25 06:27:02;;;;;;;9.77;6.35;;;;;;;-141.84;66.82;22046.00;5012515;28;20654;-60
2023/08/25 06:29:30;;;;;;;7.78;7.07;;;;;;;-141.84;66.87;22066.34;5012823;28;20248;-60
2023/08/25 06:31:59;;;;;;;7.32;6.60;;;;;;;-141.84;66.70;22102.94;5012740;28;20295;-59
2023/08/25 06:34:29;;;;;;;8.68;7.15;;;;;;;-141.84;66.52;22123.28;5017753;28;20252;-60
2023/08/25 06:36:57;;;;;;;7.15;6.30;;;;;;;-141.84;66.79;22107.00;5030059;28;20198;-59
2023/08/25 06:39:26;;;;;;;7.68;6.80;;;;;;;-141.84;65.79;22159.88;5032193;28;20234;-59
2023/08/25 06:41:54;;;;;;;7.57;6.80;;;;;;;-141.84;66.43;22115.16;5029472;28;20195;-59
2023/08/25 06:44:23;;;;;;;7.45;6.60;;;;;;;-141.84;66.51;22143.63;5031580;28;20253;-60
2023/08/25 06:47:01;;;;;;;;;;;;;;;;;;;;;
2023/08/25 06:49:38;;;;;;;7.55;6.72;;;;;;;-141.84;65.16;22202.59;5051349;28;20208;-60
2023/08/25 06:52:07;;;;;;;7.47;6.72;;;;;;;-141.84;66.14;22180.22;5031729;28;20190;-60
2023/08/25 06:54:35;;;;;;;6.63;6.03;;;;;;;-141.84;66.59;22153.78;5032039;28;20202;-60
2023/08/25 06:57:04;;;;;;;7.30;6.57;;;;;;;-141.84;66.95;22131.41;5031977;28;20234;-60
2023/08/25 06:59:32;;;;;;;7.50;6.78;;;;;;;-141.84;66.07;22206.66;5031507;28;20198;-59
2023/08/25 07:02:02;;;;;;;8.00;7.20;;;;;;;-141.84;66.59;22224.97;5032682;28;20296;-60
2023/08/25 07:04:32;;;;;;;9.77;7.10;;;;;;;-141.84;66.28;22161.91;5051188;28;20235;-59
2023/08/25 07:07:02;;;;;;;8.98;6.60;;;;;;;-141.84;65.30;22235.13;5051429;28;20676;-60
2023/08/25 07:09:31;;;;;;;7.32;6.72;;;;;;;-141.84;65.32;22235.13;5051655;28;20224;-60
2023/08/25 07:12:00;;;;;;;8.23;6.75;;;;;;;-141.84;65.25;22233.09;5051800;28;20472;-60
2023/08/25 07:14:30;;;;;;;7.57;6.93;;;;;;;-141.84;64.29;22302.25;5051481;28;20665;-60
2023/08/25 07:16:59;;;;;;;6.97;6.38;;;;;;;-141.84;64.24;22306.31;5038365;28;20289;-61
2023/08/25 07:19:28;;;;;;;8.32;6.85;;;;;;;-141.84;63.95;22312.41;5030470;28;20244;-60
2023/08/25 07:21:56;;;;;;;7.22;6.28;;;;;;;-141.84;65.24;22249.38;5030198;28;20288;-60
2023/08/25 07:24:26;;;;;;;6.97;6.35;;;;;;;-141.84;65.07;22292.06;5031026;28;20198;-59
2023/08/25 07:26:54;;;;;;;7.55;6.85;;;;;;;-141.84;63.72;22326.66;5021463;28;20190;-60
2023/08/25 07:29:23;;;;;;;9.32;6.47;;;;;;;-141.84;63.81;22344.94;5031260;28;20697;-61
2023/08/25 07:31:53;;;;;;;7.47;6.40;;;;;;;-141.84;63.78;22328.69;5031796;28;20293;-59
2023/08/25 07:34:22;;;;;;;7.55;6.10;;;;;;;-141.84;64.00;22342.91;5031049;28;20650;-60
2023/08/25 07:36:50;;;;;;;8.00;6.47;;;;;;;-141.84;63.55;22359.19;5031603;28;20383;-61
2023/08/25 07:39:19;;;;;;;10.35;6.32;;;;;;;-141.84;63.72;22405.97;5031614;28;20244;-60
2023/08/25 07:41:48;;;;;;;11.38;6.30;;;;;;;-141.84;62.03;22473.06;5031712;28;20646;-60
2023/08/25 07:44:17;;;;;;;6.28;5.72;;;;;;;-141.84;60.79;22503.56;5031110;28;20732;-61
2023/08/25 07:46:45;;;;;;;6.28;5.78;;;;;;;-141.84;60.88;22513.75;5039090;28;20219;-60
2023/08/25 07:49:14;;;;;;;7.20;5.68;;;;;;;-141.84;60.97;22527.97;5050908;28;20275;-60
2023/08/25 07:51:42;;;;;;;6.10;5.55;;;;;;;-141.84;59.87;22558.50;5031588;28;20213;-60
2023/08/25 07:54:11;;;;;;;7.35;6.50;;;;;;;-141.84;60.33;22550.34;5031128;28;20313;-61
2023/08/25 07:56:39;;;;;;;7.38;6.07;;;;;;;-141.84;59.53;22643.91;5031388;28;20248;-62
2023/08/25 07:59:10;;;;;;;7.07;5.93;;;;;;;-141.84;60.00;22654.06;5031434;28;20293;-61
2023/08/25 08:01:38;;;;;;;6.82;6.13;;;;;;;-141.84;58.66;22757.81;5031285;28;20245;-61
2023/08/25 08:04:07;;;;;;;6.57;5.78;;;;;;;-141.84;57.33;22885.94;5049045;28;20236;-62
2023/08/25 08:06:36;;;;;;;6.32;5.60;;;;;;;-141.84;57.39;22847.28;5051029;28;20202;-60
2023/08/25 08:09:06;;;;;;;7.85;5.53;;;;;;;-141.84;56.57;22965.28;5050686;28;20672;-60
2023/08/25 08:11:35;;;;;;;7.65;6.10;;;;;;;-141.84;56.23;22971.38;5051007;28;20564;-60
2023/08/25 08:14:04;;;;;;;6.60;5.78;;;;;;;-141.84;55.09;23058.84;5051309;28;20198;-60
2023/08/25 08:16:34;;;;;;;6.20;5.68;;;;;;;-141.84;55.81;23093.41;5050596;28;20300;-60
2023/08/25 08:19:06;;;;;;;5.93;5.45;;;;;;;-141.84;54.17;23252.06;5050591;28;20186;-60
2023/08/25 08:21:34;;;;;;;6.80;5.78;;;;;;;-141.84;53.91;23272.41;5034434;28;20236;-61
2023/08/25 08:24:03;;;;;;;5.57;5.13;;;;;;;-141.84;54.08;23298.84;5031115;28;20206;-62
2023/08/25 08:26:32;;;;;;;7.40;5.53;;;;;;;-141.84;nan;23370.06;5030971;28;20699;-61
2023/08/25 08:29:00;;;;;;;7.38;5.82;;;;;;;-141.84;53.58;23400.56;5031356;28;20232;-60
2023/08/25 08:31:29;;;;;;;6.22;5.55;;;;;;;-141.84;54.70;23268.34;5032329;28;20226;-61
2023/08/25 08:33:59;;;;;;;6.47;5.85;;;;;;;-141.84;54.59;23294.78;5034278;28;20202;-61
2023/08/25 08:36:28;;;;;;;6.30;5.72;;;;;;;-141.84;54.97;23209.34;5034950;28;20651;-61
2023/08/25 08:38:58;;;;;;;6.05;5.47;;;;;;;-141.84;55.54;23152.41;5034946;28;20575;-61
2023/08/25 08:41:27;;;;;;;8.27;6.30;;;;;;;-141.84;56.29;23125.97;5051545;28;20244;-60
2023/08/25 08:43:59;;;;;;;10.27;8.60;;;;;;;-141.84;56.26;23091.38;5054230;28;20675;-60
2023/08/25 08:46:31;;;;;;;6.90;5.90;;;;;;;-141.84;56.61;23099.50;5054151;28;20201;-60
2023/08/25 08:49:02;;;;;;;6.57;5.78;;;;;;;-141.84;56.08;23117.81;5054502;28;20209;-60
2023/08/25 08:51:32;;;;;;;6.45;5.78;;;;;;;-141.84;56.56;23097.47;5037912;28;20300;-60
2023/08/25 08:54:04;;;;;;;6.30;5.72;;;;;;;-141.84;56.09;23176.81;5033966;28;20202;-63
2023/08/25 08:56:34;;;;;;;6.32;5.75;;;;;;;-141.84;55.88;23219.53;5034209;28;20289;-60
2023/08/25 08:59:04;;;;;;;6.07;5.53;;;;;;;-141.84;55.32;23321.22;5034383;28;20221;-60
2023/08/25 09:01:33;;;;;;;6.57;6.00;;;;;;;-141.84;55.28;23313.09;5033666;28;20237;-60
2023/08/25 09:04:06;;;;;;;7.95;5.60;;;;;;;-141.84;54.35;23384.28;5018943;28;20290;-60
2023/08/25 09:06:37;;;;;;;7.85;6.13;;;;;;;-141.84;53.46;23492.09;5014866;28;20579;-60
2023/08/25 09:09:08;;;;;;;6.55;5.47;;;;;;;-141.84;52.91;23530.75;5034178;28;20301;-61
2023/08/25 09:11:37;;;;;;;7.53;5.57;;;;;;;-141.84;53.20;23555.19;5034259;28;20193;-60
2023/08/25 09:14:07;;;;;;;6.32;5.72;;;;;;;-141.84;52.66;23557.22;5034169;28;20198;-60
2023/08/25 09:16:37;;;;;;;6.50;5.88;;;;;;;-141.84;52.47;23652.81;5037443;28;20205;-61
2023/08/25 09:19:07;;;;;;;5.85;5.32;;;;;;;-141.84;52.44;23640.63;5033792;28;20198;-60
2023/08/25 09:21:36;;;;;;;6.50;5.90;;;;;;;-141.84;53.32;23518.56;5033482;28;20637;-61
2023/08/25 09:24:04;;;;;;;5.82;5.38;;;;;;;-141.84;52.44;23549.06;5033405;28;20657;-59
2023/08/25 09:26:37;;;;;;;5.70;5.20;;;;;;;-141.84;52.84;23492.09;5033698;28;20279;-61
2023/08/25 09:29:05;;;;;;;6.10;5.50;;;;;;;-141.84;52.89;23502.28;5033385;28;20618;-60
2023/08/25 09:31:35;;;;;;;5.93;5.25;;;;;;;-141.84;54.06;23388.38;5032774;28;20728;-61
2023/08/25 09:34:06;;;;;;;6.22;5.43;;;;;;;-141.84;54.29;23337.50;5033400;28;20275;-61
2023/08/25 09:36:35;;;;;;;5.38;4.95;;;;;;;-141.84;54.76;23317.16;5033670;28;20617;-61
2023/08/25 09:39:04;;;;;;;7.18;5.95;;;;;;;-141.84;54.58;23321.22;5033446;28;20194;-60
2023/08/25 09:41:35;;;;;;;6.28;5.50;;;;;;;-141.84;54.86;23337.50;5051445;28;20193;-59
2023/08/25 09:44:04;;;;;;;6.30;5.70;;;;;;;-141.84;53.75;23445.31;5053523;28;20280;-60
2023/08/25 09:46:34;;;;;;;6.05;5.10;;;;;;;-141.84;54.04;23351.75;5052709;28;20262;-60
2023/08/25 09:49:03;;;;;;;6.88;5.85;;;;;;;-141.84;54.07;23429.03;5053280;28;20232;-61
2023/08/25 09:51:37;;;;;;;5.55;5.00;;;;;;;-141.84;53.77;23439.22;5036373;28;20210;-60
2023/08/25 09:54:09;;;;;;;6.05;5.47;;;;;;;-141.84;54.62;23363.94;5033059;28;20273;-60
2023/08/25 09:56:40;;;;;;;6.95;5.18;;;;;;;-141.84;54.55;23429.03;5032779;28;20646;-61
2023/08/25 09:59:10;;;;;;;7.85;6.05;;;;;;;-141.84;54.01;23439.22;5033201;28;20201;-60
2023/08/25 10:01:44;;;;;;;9.07;5.78;;;;;;;-141.84;54.74;23368.03;5032780;28;20225;-61
2023/08/25 10:04:13;;;;;;;6.30;5.70;;;;;;;-141.84;55.47;23282.59;5051696;28;20196;-61
2023/08/25 10:06:43;;;;;;;8.00;6.13;;;;;;;-141.84;54.74;23337.50;5052629;28;20267;-61
2023/08/25 10:09:14;;;;;;;7.22;6.13;;;;;;;-141.84;55.48;23284.63;5047898;28;20763;-61
2023/08/25 10:11:45;;;;;;;6.32;5.72;;;;;;;-141.84;57.00;23146.28;5032668;28;20240;-60
2023/08/25 10:14:14;;;;;;;6.55;5.95;;;;;;;-141.84;57.13;23119.84;5032634;28;20222;-61
2023/08/25 10:16:49;;;;;;;6.80;6.00;;;;;;;-141.84;56.40;23217.50;5039267;28;20718;-60
2023/08/25 10:19:23;;;;;;;9.02;6.25;;;;;;;-141.84;55.92;23146.28;5017135;28;20190;-60
2023/08/25 10:21:55;;;;;;;7.82;6.32;;;;;;;-141.84;54.57;23372.09;5032196;28;20303;-59
2023/08/25 10:24:25;;;;;;;6.18;5.57;;;;;;;-141.84;53.70;23467.69;5032023;28;20641;-60
2023/08/25 10:26:54;;;;;;;8.55;5.93;;;;;;;-141.84;53.14;23467.69;5032453;28;20299;-60
2023/08/25 10:29:24;;;;;;;7.13;5.90;;;;;;;-141.84;52.58;23540.94;5031875;28;20325;-61
2023/08/25 10:31:59;;;;;;;6.10;5.50;;;;;;;-141.84;53.04;23610.09;5031668;28;20212;-60
2023/08/25 10:34:36;;;;;;;6.70;5.45;;;;;;;-141.84;53.59;23492.09;5031559;28;20212;-60
2023/08/25 10:37:10;;;;;;;6.07;5.50;;;;;;;-141.84;53.62;23465.66;5029977;28;20194;-61
2023/08/25 10:39:50;;;;;;;7.15;5.70;;;;;;;-141.84;53.06;23461.59;5029034;28;20635;-61
2023/08/25 10:42:25;;;;;;;6.40;5.60;;;;;;;-141.84;53.78;23457.53;5029199;28;20205;-61
2023/08/25 10:44:57;;;;;;;6.70;5.82;;;;;;;-141.84;53.70;23380.22;5031933;28;20276;-61
2023/08/25 10:47:28;;;;;;;6.55;5.07;;;;;;;-141.84;52.98;23496.19;5034591;28;20234;-60
2023/08/25 10:49:57;;;;;;;6.68;5.32;;;;;;;-141.84;53.32;23524.66;5030893;28;20665;-61
2023/08/25 10:52:27;;;;;;;5.10;4.70;;;;;;;-141.84;51.19;23707.75;5031987;28;20301;-61
2023/08/25 10:54:56;;;;;;;5.25;4.85;;;;;;;-141.84;52.33;23681.31;5030771;28;20720;-61
2023/08/25 10:57:43;;;;;;;5.82;4.90;;;;;;;-141.84;51.78;23652.81;5032415;28;20194;-60
2023/08/25 11:00:29;;;;;;;7.53;4.65;;;;;;;-141.84;50.81;23663.00;5031564;28;20541;-60
2023/08/25 11:02:58;;;;;;;6.00;5.22;;;;;;;-141.84;51.49;23669.09;5032746;28;20190;-61
2023/08/25 11:05:44;;;;;;;5.72;5.18;;;;;;;-141.84;52.45;23630.44;5031063;28;20298;-60
2023/08/25 11:08:28;;;;;;;8.07;5.75;;;;;;;-141.84;52.33;23681.31;5027899;28;20198;-61
2023/08/25 11:11:13;;;;;;;5.65;5.00;;;;;;;-141.84;51.85;23717.91;5029153;28;20279;-60
2023/08/25 11:13:43;;;;;;;5.57;5.05;;;;;;;-141.84;51.85;23632.47;5016874;28;20229;-61
2023/08/25 11:16:13;;;;;;;5.90;5.30;;;;;;;-141.84;52.08;23549.06;5034105;28;20219;-60
2023/08/25 11:18:42;;;;;;;5.25;4.80;;;;;;;-141.84;52.82;23520.59;5032588;28;20202;-61
2023/08/25 11:21:11;;;;;;;7.93;5.20;;;;;;;-141.84;52.80;23451.44;5030602;28;20238;-60
2023/08/25 11:23:43;;;;;;;8.13;5.30;;;;;;;-141.84;52.16;23571.44;5031521;28;20202;-60
2023/08/25 11:26:16;;;;;;;5.50;5.00;;;;;;;-141.84;52.75;23581.63;5030975;28;20229;-61
2023/08/25 11:28:48;;;;;;;5.70;5.10;;;;;;;-141.84;52.68;23601.97;5031716;28;20295;-61